createdAt,value
2019-04-25T00:00:38.829Z,1.80
2019-04-25T00:03:06.010Z,1.30
2019-04-25T00:05:32.953Z,1.60
2019-04-25T00:08:01.435Z,1.52
2019-04-25T00:10:28.510Z,1.60
2019-04-25T00:12:55.357Z,1.20
2019-04-25T00:15:22.463Z,1.00
2019-04-25T00:17:49.285Z,0.90
2019-04-25T00:20:16.173Z,1.40
2019-04-25T00:22:51.527Z,1.30
2019-04-25T00:25:23.864Z,1.30
2019-04-25T00:27:51.645Z,1.40
2019-04-25T00:30:21.005Z,1.40
2019-04-25T00:32:49.306Z,1.30
2019-04-25T00:35:16.337Z,1.40
2019-04-25T00:37:45.062Z,1.10
2019-04-25T00:40:11.850Z,1.40
2019-04-25T00:42:42.782Z,1.47
2019-04-25T00:45:08.925Z,1.80
2019-04-25T00:47:35.789Z,1.80
2019-04-25T00:50:03.377Z,1.50
2019-04-25T00:52:31.355Z,1.77
2019-04-25T00:54:58.349Z,1.77
2019-04-25T00:57:26.193Z,1.80
2019-04-25T01:00:11.620Z,1.60
2019-04-25T01:02:40.334Z,1.60
2019-04-25T01:05:07.397Z,1.90
2019-04-25T01:07:34.533Z,1.70
2019-04-25T01:10:02.432Z,1.72
2019-04-25T01:12:29.497Z,1.50
2019-04-25T01:14:56.426Z,1.32
2019-04-25T01:17:23.580Z,1.67
2019-04-25T01:19:51.005Z,1.60
2019-04-25T01:22:17.988Z,1.70
2019-04-25T01:24:45.644Z,1.30
2019-04-25T01:27:13.535Z,1.30
2019-04-25T01:29:40.682Z,1.90
2019-04-25T01:32:09.322Z,1.30
2019-04-25T01:34:44.293Z,1.50
2019-04-25T01:37:13.956Z,1.60
2019-04-25T01:39:45.575Z,1.40
2019-04-25T01:42:14.304Z,1.52
2019-04-25T01:44:46.069Z,1.20
2019-04-25T01:47:14.209Z,1.10
2019-04-25T01:49:41.059Z,1.10
2019-04-25T01:52:07.865Z,1.40
2019-04-25T01:54:34.789Z,1.02
2019-04-25T01:57:01.689Z,1.07
2019-04-25T01:59:28.720Z,1.35
2019-04-25T02:01:55.653Z,1.70
2019-04-25T02:04:23.172Z,1.90
2019-04-25T02:06:51.363Z,1.80
2019-04-25T02:09:20.624Z,1.10
2019-04-25T02:12:01.456Z,1.40
2019-04-25T02:14:28.249Z,1.40
2019-04-25T02:16:56.269Z,1.37
2019-04-25T02:19:24.202Z,1.40
2019-04-25T02:21:51.439Z,1.20
2019-04-25T02:24:19.068Z,1.22
2019-04-25T02:26:45.925Z,1.40
2019-04-25T02:29:13.667Z,1.50
2019-04-25T02:31:40.705Z,1.10
2019-04-25T02:34:08.605Z,1.80
2019-04-25T02:36:36.049Z,1.80
2019-04-25T02:39:08.967Z,1.50
2019-04-25T02:41:36.010Z,1.10
2019-04-25T02:44:09.296Z,1.50
2019-04-25T02:46:51.925Z,1.40
2019-04-25T02:49:34.823Z,1.50
2019-04-25T02:52:15.260Z,1.25
2019-04-25T02:54:40.033Z,1.17
2019-04-25T02:57:08.273Z,1.60
2019-04-25T02:59:36.987Z,1.60
2019-04-25T03:02:05.784Z,1.20
2019-04-25T03:04:33.933Z,1.15
2019-04-25T03:07:02.680Z,1.30
2019-04-25T03:09:29.654Z,1.60
2019-04-25T03:11:58.223Z,1.20
2019-04-25T03:14:26.811Z,1.50
2019-04-25T03:16:54.384Z,1.70
2019-04-25T03:19:24.411Z,1.55
2019-04-25T03:21:56.457Z,1.20
2019-04-25T03:24:25.048Z,1.70
2019-04-25T03:26:53.217Z,1.50
2019-04-25T03:29:20.206Z,1.20
2019-04-25T03:31:47.113Z,1.20
2019-04-25T03:34:19.247Z,1.77
2019-04-25T03:36:43.829Z,1.70
2019-04-25T03:39:11.008Z,2.00
2019-04-25T03:41:37.804Z,1.70
2019-04-25T03:44:05.455Z,1.32
2019-04-25T03:46:33.422Z,1.50
2019-04-25T03:49:00.285Z,1.32
2019-04-25T03:51:27.149Z,1.40
2019-04-25T03:53:53.941Z,1.72
2019-04-25T03:56:20.776Z,1.40
2019-04-25T03:58:47.555Z,1.30
2019-04-25T04:01:15.579Z,1.60
2019-04-25T04:03:43.993Z,1.10
2019-04-25T04:06:11.661Z,1.70
2019-04-25T04:08:38.497Z,1.40
2019-04-25T04:11:07.327Z,1.45
2019-04-25T04:13:34.347Z,1.80
2019-04-25T04:16:01.270Z,1.30
2019-04-25T04:18:35.973Z,1.90
2019-04-25T04:21:21.281Z,1.50
2019-04-25T04:23:57.263Z,1.55
2019-04-25T04:26:24.474Z,1.65
2019-04-25T04:28:51.344Z,1.70
2019-04-25T04:31:18.212Z,1.60
2019-04-25T04:33:45.057Z,1.80
2019-04-25T04:36:11.912Z,1.70
2019-04-25T04:38:38.713Z,1.65
2019-04-25T04:41:05.539Z,1.60
2019-04-25T04:43:34.112Z,1.55
2019-04-25T04:46:01.045Z,1.90
2019-04-25T04:48:27.838Z,1.70
2019-04-25T04:50:54.679Z,1.73
2019-04-25T04:53:21.503Z,2.10
2019-04-25T04:55:48.344Z,1.87
2019-04-25T04:58:16.191Z,1.82
2019-04-25T05:00:43.864Z,2.10
2019-04-25T05:03:27.546Z,1.67
2019-04-25T05:05:59.114Z,2.15
2019-04-25T05:08:30.504Z,2.00
2019-04-25T05:10:57.489Z,2.00
2019-04-25T05:13:24.314Z,1.70
2019-04-25T05:15:51.181Z,1.60
2019-04-25T05:18:31.543Z,1.80
2019-04-25T05:20:46.936Z,1.60
2019-04-25T05:23:15.114Z,1.60
2019-04-25T05:25:44.083Z,1.30
2019-04-25T05:28:10.890Z,1.10
2019-04-25T05:30:55.900Z,1.30
2019-04-25T05:33:23.632Z,1.50
2019-04-25T05:35:51.045Z,1.20
2019-04-25T05:38:18.333Z,1.10
2019-04-25T05:40:56.109Z,1.40
2019-04-25T05:43:24.582Z,1.12
2019-04-25T05:45:54.064Z,1.00
2019-04-25T05:48:21.166Z,1.05
2019-04-25T05:50:47.945Z,1.20
2019-04-25T05:53:16.196Z,1.25
2019-04-25T05:55:44.146Z,1.30
2019-04-25T05:58:11.080Z,1.10
2019-04-25T06:00:38.781Z,1.20
2019-04-25T06:03:05.637Z,1.10
2019-04-25T06:05:33.483Z,1.20
2019-04-25T06:08:00.465Z,1.20
2019-04-25T06:10:34.937Z,1.60
2019-04-25T06:13:23.255Z,1.27
2019-04-25T06:15:53.351Z,1.20
2019-04-25T06:18:28.384Z,1.20
2019-04-25T06:20:55.648Z,1.25
2019-04-25T06:23:25.587Z,1.22
2019-04-25T06:25:53.805Z,1.10
2019-04-25T06:28:23.954Z,0.93
2019-04-25T06:30:51.263Z,0.80
2019-04-25T06:33:18.150Z,1.00
2019-04-25T06:35:44.981Z,1.20
2019-04-25T06:38:13.267Z,0.80
2019-04-25T06:40:40.314Z,1.17
2019-04-25T06:43:07.159Z,1.27
2019-04-25T06:45:50.061Z,1.02
2019-04-25T06:48:21.340Z,0.88
2019-04-25T06:50:48.156Z,1.07
2019-04-25T06:53:14.993Z,1.10
2019-04-25T06:55:43.352Z,1.20
2019-04-25T06:58:12.820Z,0.90
2019-04-25T07:00:42.604Z,1.30
2019-04-25T07:03:07.704Z,1.00
2019-04-25T07:05:40.196Z,1.50
2019-04-25T07:08:03.425Z,1.32
2019-04-25T07:10:30.321Z,1.20
2019-04-25T07:12:57.864Z,1.10
2019-04-25T07:15:26.664Z,1.00
2019-04-25T07:17:54.046Z,1.00
2019-04-25T07:20:21.733Z,1.20
2019-04-25T07:22:48.559Z,1.17
2019-04-25T07:25:15.752Z,1.30
2019-04-25T07:28:00.930Z,1.20
2019-04-25T07:30:46.831Z,1.30
2019-04-25T07:33:21.217Z,1.17
2019-04-25T07:35:48.053Z,1.03
2019-04-25T07:38:14.893Z,1.23
2019-04-25T07:40:43.364Z,1.20
2019-04-25T07:43:10.328Z,1.07
2019-04-25T07:45:37.112Z,1.55
2019-04-25T07:48:04.129Z,0.93
2019-04-25T07:50:30.941Z,1.05
2019-04-25T07:52:57.781Z,1.10
2019-04-25T07:55:24.604Z,1.00
2019-04-25T07:57:51.468Z,1.40
2019-04-25T08:00:19.207Z,1.20
2019-04-25T08:02:46.041Z,1.00
2019-04-25T08:05:15.295Z,1.22
2019-04-25T08:07:43.591Z,1.20
2019-04-25T08:10:12.034Z,1.40
2019-04-25T08:12:40.846Z,1.00
2019-04-25T08:15:10.289Z,1.10
2019-04-25T08:17:57.060Z,1.30
2019-04-25T08:20:24.413Z,1.30
2019-04-25T08:22:57.136Z,1.22
2019-04-25T08:25:21.241Z,1.30
2019-04-25T08:27:48.189Z,1.20
2019-04-25T08:30:14.977Z,1.20
2019-04-25T08:32:41.851Z,1.02
2019-04-25T08:35:09.057Z,2.05
2019-04-25T08:37:36.628Z,1.30
2019-04-25T08:40:05.209Z,1.30
2019-04-25T08:42:32.830Z,1.40
2019-04-25T08:45:00.796Z,1.10
2019-04-25T08:47:27.587Z,1.30
2019-04-25T08:49:56.234Z,1.10
2019-04-25T08:52:24.354Z,1.40
2019-04-25T08:54:54.624Z,1.00
2019-04-25T08:57:40.136Z,1.22
2019-04-25T09:00:10.966Z,1.25
2019-04-25T09:02:40.432Z,1.30
2019-04-25T09:05:17.489Z,1.50
2019-04-25T09:07:45.327Z,1.17
2019-04-25T09:10:13.772Z,1.07
2019-04-25T09:12:41.786Z,1.50
2019-04-25T09:15:09.227Z,1.70
2019-04-25T09:17:37.226Z,1.40
2019-04-25T09:20:05.474Z,1.37
2019-04-25T09:22:35.040Z,1.30
2019-04-25T09:25:01.301Z,1.50
2019-04-25T09:27:28.133Z,1.50
2019-04-25T09:29:54.922Z,1.37
2019-04-25T09:32:21.814Z,1.70
2019-04-25T09:34:48.608Z,1.35
2019-04-25T09:37:15.449Z,1.27
2019-04-25T09:39:58.944Z,1.40
2019-04-25T09:42:25.785Z,1.42
2019-04-25T09:45:11.366Z,1.77
2019-04-25T09:47:39.304Z,1.32
2019-04-25T09:50:08.617Z,1.60
2019-04-25T09:52:36.110Z,1.40
2019-04-25T09:55:21.780Z,1.60
2019-04-25T09:57:59.373Z,1.32
2019-04-25T10:00:38.240Z,1.30
2019-04-25T10:03:05.416Z,1.32
2019-04-25T10:05:33.822Z,1.15
2019-04-25T10:08:01.068Z,1.70
2019-04-25T10:10:28.717Z,1.30
2019-04-25T10:12:55.499Z,1.40
2019-04-25T10:15:46.034Z,1.60
2019-04-25T10:18:14.286Z,1.00
2019-04-25T10:20:41.396Z,1.50
2019-04-25T10:23:08.585Z,1.30
2019-04-25T10:25:35.417Z,1.30
2019-04-25T10:28:04.278Z,1.30
2019-04-25T10:30:31.077Z,1.22
2019-04-25T10:32:57.920Z,1.50
2019-04-25T10:35:24.849Z,1.20
2019-04-25T10:37:53.345Z,1.60
2019-04-25T10:40:20.686Z,1.30
2019-04-25T10:42:49.284Z,1.60
2019-04-25T10:45:23.152Z,1.52
2019-04-25T10:47:45.261Z,1.50
2019-04-25T10:50:13.547Z,1.20
2019-04-25T10:52:41.560Z,1.43
2019-04-25T10:55:08.662Z,1.47
2019-04-25T10:57:35.501Z,1.20
2019-04-25T11:00:08.990Z,1.30
2019-04-25T11:02:34.600Z,1.27
2019-04-25T11:05:09.313Z,1.37
2019-04-25T11:07:36.853Z,1.30
2019-04-25T11:10:05.080Z,1.10
2019-04-25T11:12:33.661Z,1.30
2019-04-25T11:15:00.909Z,1.22
2019-04-25T11:17:27.733Z,1.30
2019-04-25T11:19:55.462Z,1.20
2019-04-25T11:22:23.910Z,1.20
2019-04-25T11:24:50.866Z,1.50
2019-04-25T11:27:17.720Z,1.27
2019-04-25T11:29:45.070Z,1.30
2019-04-25T11:32:14.851Z,1.00
2019-04-25T11:34:43.154Z,1.00
2019-04-25T11:37:10.481Z,1.00
2019-04-25T11:39:39.128Z,1.30
2019-04-25T11:42:07.268Z,1.10
2019-04-25T11:44:35.040Z,1.40
2019-04-25T11:47:03.895Z,0.82
2019-04-25T11:49:30.872Z,1.10
2019-04-25T11:51:57.648Z,1.00
2019-04-25T11:54:24.570Z,1.03
2019-04-25T11:56:51.546Z,1.10
2019-04-25T11:59:18.503Z,1.10
2019-04-25T12:01:46.742Z,1.20
2019-04-25T12:04:14.886Z,1.10
2019-04-25T12:06:43.120Z,1.20
2019-04-25T12:09:13.961Z,1.00
2019-04-25T12:11:41.166Z,1.00
2019-04-25T12:14:07.968Z,1.00
2019-04-25T12:16:34.760Z,1.00
2019-04-25T12:19:01.634Z,0.90
2019-04-25T12:21:28.608Z,1.10
2019-04-25T12:23:55.487Z,1.30
2019-04-25T12:26:24.251Z,1.10
2019-04-25T12:28:51.427Z,1.10
2019-04-25T12:31:18.521Z,1.10
2019-04-25T12:33:47.601Z,1.00
2019-04-25T12:36:14.570Z,0.95
2019-04-25T12:38:41.416Z,1.05
2019-04-25T12:41:08.352Z,0.90
2019-04-25T12:43:36.985Z,1.07
2019-04-25T12:46:11.788Z,1.05
2019-04-25T12:48:38.660Z,1.02
2019-04-25T12:51:05.503Z,1.30
2019-04-25T12:53:33.436Z,1.10
2019-04-25T12:56:01.052Z,1.35
2019-04-25T12:58:27.833Z,1.17
2019-04-25T13:00:58.319Z,1.00
2019-04-25T13:03:24.157Z,1.25
2019-04-25T13:05:51.107Z,1.20
2019-04-25T13:08:18.929Z,1.02
2019-04-25T13:10:45.776Z,1.10
2019-04-25T13:13:14.921Z,1.05
2019-04-25T13:15:44.267Z,1.15
2019-04-25T13:18:09.955Z,1.47
2019-04-25T13:20:36.797Z,1.30
2019-04-25T13:23:05.769Z,1.42
2019-04-25T13:25:34.288Z,1.12
2019-04-25T13:28:09.402Z,1.25
2019-04-25T13:30:43.956Z,1.10
2019-04-25T13:33:24.645Z,1.23
2019-04-25T13:35:54.351Z,0.95
2019-04-25T13:38:21.300Z,1.32
2019-04-25T13:40:48.204Z,1.40
2019-04-25T13:43:15.172Z,1.47
2019-04-25T13:45:42.007Z,1.55
2019-04-25T13:48:08.913Z,1.40
2019-04-25T13:50:35.748Z,1.17
2019-04-25T13:53:03.363Z,1.20
2019-04-25T13:55:30.284Z,1.10
2019-04-25T13:57:57.100Z,1.17
2019-04-25T14:00:24.885Z,1.20
2019-04-25T14:02:52.724Z,1.30
2019-04-25T14:05:21.365Z,1.00
2019-04-25T14:07:48.360Z,1.10
2019-04-25T14:10:15.481Z,1.50
2019-04-25T14:12:43.559Z,1.20
2019-04-25T14:15:13.819Z,1.25
2019-04-25T14:17:44.748Z,1.30
2019-04-25T14:20:23.364Z,1.17
2019-04-25T14:22:50.951Z,1.10
2019-04-25T14:25:19.436Z,1.25
2019-04-25T14:27:46.277Z,1.20
2019-04-25T14:30:14.865Z,1.20
2019-04-25T14:32:41.696Z,1.20
2019-04-25T14:35:09.028Z,1.00
2019-04-25T14:37:39.627Z,1.20
2019-04-25T14:40:06.388Z,1.20
2019-04-25T14:42:33.263Z,1.10
2019-04-25T14:45:00.117Z,1.10
2019-04-25T14:47:27.450Z,1.30
2019-04-25T14:49:54.345Z,1.25
2019-04-25T14:52:21.161Z,1.72
2019-04-25T14:54:55.856Z,1.20
2019-04-25T14:57:24.436Z,1.30
2019-04-25T14:59:51.285Z,1.20
2019-04-25T15:02:19.076Z,1.23
2019-04-25T15:04:45.931Z,1.45
2019-04-25T15:07:12.714Z,1.30
2019-04-25T15:09:39.732Z,1.30
2019-04-25T15:12:06.576Z,1.67
2019-04-25T15:14:33.544Z,1.40
2019-04-25T15:17:00.362Z,1.20
2019-04-25T15:19:27.511Z,1.20
2019-04-25T15:21:54.390Z,1.37
2019-04-25T15:24:21.224Z,1.40
2019-04-25T15:26:48.098Z,1.33
2019-04-25T15:29:14.908Z,1.45
2019-04-25T15:31:41.711Z,1.45
2019-04-25T15:34:08.602Z,1.40
2019-04-25T15:36:39.762Z,1.42
2019-04-25T15:39:25.074Z,1.60
2019-04-25T15:42:11.924Z,1.60
2019-04-25T15:44:43.576Z,2.00
2019-04-25T15:47:12.269Z,1.60
2019-04-25T15:49:39.057Z,1.50
2019-04-25T15:52:06.602Z,1.42
2019-04-25T15:54:33.862Z,1.40
2019-04-25T15:57:00.833Z,1.60
2019-04-25T15:59:28.702Z,1.32
2019-04-25T16:02:07.477Z,1.50
2019-04-25T16:04:24.351Z,1.40
2019-04-25T16:06:51.144Z,1.60
2019-04-25T16:09:17.979Z,1.30
2019-04-25T16:11:44.791Z,1.40
2019-04-25T16:14:11.616Z,1.70
2019-04-25T16:16:38.450Z,1.53
2019-04-25T16:19:05.276Z,1.10
2019-04-25T16:21:32.259Z,1.40
2019-04-25T16:23:59.359Z,1.70
2019-04-25T16:26:26.950Z,1.40
2019-04-25T16:28:54.780Z,1.20
2019-04-25T16:31:23.434Z,1.50
2019-04-25T16:33:50.268Z,1.40
2019-04-25T16:36:17.092Z,1.40
2019-04-25T16:38:44.020Z,1.55
2019-04-25T16:41:11.399Z,1.30
2019-04-25T16:43:40.968Z,1.30
2019-04-25T16:46:07.965Z,1.50
2019-04-25T16:48:35.671Z,1.15
2019-04-25T16:51:02.532Z,1.40
2019-04-25T16:53:30.286Z,1.95
2019-04-25T16:55:59.872Z,1.90
2019-04-25T16:58:26.724Z,1.97
2019-04-25T17:00:55.321Z,3.63
2019-04-25T17:03:24.098Z,3.15
2019-04-25T17:05:50.981Z,2.70
2019-04-25T17:08:18.126Z,2.20
2019-04-25T17:10:44.965Z,2.33
2019-04-25T17:13:11.949Z,1.50
2019-04-25T17:15:49.613Z,1.52
2019-04-25T17:18:27.258Z,1.42
2019-04-25T17:20:58.505Z,1.47
2019-04-25T17:23:25.361Z,1.60
2019-04-25T17:25:52.194Z,1.30
2019-04-25T17:28:19.072Z,1.70
2019-04-25T17:30:48.188Z,1.70
2019-04-25T17:33:16.853Z,2.00
2019-04-25T17:35:45.469Z,1.42
2019-04-25T17:38:16.179Z,1.40
2019-04-25T17:40:43.046Z,1.50
2019-04-25T17:43:11.121Z,1.32
2019-04-25T17:45:39.119Z,1.67
2019-04-25T17:48:06.033Z,1.85
2019-04-25T17:50:32.959Z,1.98
2019-04-25T17:53:00.009Z,1.50
2019-04-25T17:55:26.785Z,1.80
2019-04-25T17:57:53.616Z,1.20
2019-04-25T18:00:22.345Z,1.87
2019-04-25T18:02:58.335Z,1.70
2019-04-25T18:05:18.177Z,1.75
2019-04-25T18:07:45.328Z,2.00
2019-04-25T18:10:14.358Z,2.27
2019-04-25T18:12:42.171Z,1.80
2019-04-25T18:15:11.307Z,1.80
2019-04-25T18:17:38.152Z,2.20
2019-04-25T18:20:10.818Z,2.05
2019-04-25T18:22:43.340Z,2.20
2019-04-25T18:25:12.194Z,1.90
2019-04-25T18:27:44.240Z,1.80
2019-04-25T18:30:11.140Z,1.80
2019-04-25T18:32:39.734Z,1.87
2019-04-25T18:35:08.481Z,2.00
2019-04-25T18:37:54.072Z,1.72
2019-04-25T18:40:31.731Z,1.77
2019-04-25T18:43:00.316Z,1.67
2019-04-25T18:45:29.076Z,1.60
2019-04-25T18:47:55.869Z,1.80
2019-04-25T18:50:24.523Z,1.70
2019-04-25T18:52:53.214Z,1.50
2019-04-25T18:55:21.809Z,1.30
2019-04-25T18:57:53.275Z,1.60
2019-04-25T19:00:37.803Z,1.85
2019-04-25T19:03:22.442Z,1.57
2019-04-25T19:06:03.001Z,2.00
2019-04-25T19:08:30.280Z,1.50
2019-04-25T19:10:57.699Z,1.67
2019-04-25T19:13:24.549Z,1.50
2019-04-25T19:15:51.833Z,1.47
2019-04-25T19:18:18.670Z,1.40
2019-04-25T19:20:46.046Z,1.20
2019-04-25T19:23:13.100Z,1.20
2019-04-25T19:25:40.271Z,1.22
2019-04-25T19:28:07.261Z,1.40
2019-04-25T19:30:34.071Z,1.30
2019-04-25T19:33:00.912Z,1.00
2019-04-25T19:35:27.730Z,1.10
2019-04-25T19:37:55.873Z,1.07
2019-04-25T19:40:42.146Z,1.20
2019-04-25T19:43:10.953Z,1.20
2019-04-25T19:45:38.339Z,1.40
2019-04-25T19:48:05.121Z,1.37
2019-04-25T19:50:31.948Z,0.93
2019-04-25T19:52:58.761Z,1.20
2019-04-25T19:55:25.597Z,1.22
2019-04-25T19:57:52.578Z,1.40
2019-04-25T20:00:19.843Z,1.37
2019-04-25T20:02:54.145Z,1.50
2019-04-25T20:05:32.349Z,1.40
2019-04-25T20:08:09.773Z,1.20
2019-04-25T20:10:38.450Z,1.20
2019-04-25T20:13:05.335Z,1.10
2019-04-25T20:15:32.230Z,1.27
2019-04-25T20:17:59.021Z,1.22
2019-04-25T20:20:25.853Z,1.30
2019-04-25T20:22:52.705Z,1.35
2019-04-25T20:25:19.597Z,1.10
2019-04-25T20:27:46.709Z,1.62
2019-04-25T20:30:14.242Z,1.10
2019-04-25T20:32:41.044Z,1.30
2019-04-25T20:35:08.196Z,1.50
2019-04-25T20:37:35.017Z,1.30
2019-04-25T20:40:01.900Z,1.40
2019-04-25T20:42:28.690Z,1.47
2019-04-25T20:44:56.052Z,1.40
2019-04-25T20:47:22.964Z,1.15
2019-04-25T20:49:50.642Z,1.10
2019-04-25T20:52:18.029Z,1.25
2019-04-25T20:54:44.818Z,1.45
2019-04-25T20:57:11.697Z,1.40
2019-04-25T20:59:38.536Z,1.40
2019-04-25T21:02:06.332Z,1.15
2019-04-25T21:04:40.259Z,1.45
2019-04-25T21:07:07.043Z,1.30
2019-04-25T21:09:34.282Z,1.32
2019-04-25T21:12:01.464Z,1.20
2019-04-25T21:14:30.034Z,1.10
2019-04-25T21:16:58.704Z,1.00
2019-04-25T21:19:42.120Z,1.00
2019-04-25T21:22:09.069Z,1.30
2019-04-25T21:24:35.853Z,1.30
2019-04-25T21:27:02.681Z,1.30
2019-04-25T21:29:29.652Z,1.35
2019-04-25T21:31:56.741Z,1.17
2019-04-25T21:34:26.512Z,1.17
2019-04-25T21:36:53.272Z,1.10
2019-04-25T21:39:37.508Z,1.20
2019-04-25T21:42:25.090Z,1.30
2019-04-25T21:44:53.880Z,1.20
2019-04-25T21:47:20.981Z,1.20
2019-04-25T21:49:48.120Z,1.00
2019-04-25T21:52:15.318Z,1.40
2019-04-25T21:54:42.262Z,1.20
2019-04-25T21:57:09.253Z,1.20
2019-04-25T21:59:36.203Z,1.10
2019-04-25T22:02:03.590Z,1.00
2019-04-25T22:04:38.649Z,1.10
2019-04-25T22:06:59.480Z,1.20
2019-04-25T22:09:27.824Z,1.10
2019-04-25T22:11:56.208Z,1.20
2019-04-25T22:14:23.949Z,1.20
2019-04-25T22:16:51.139Z,1.30
2019-04-25T22:19:18.680Z,1.10
2019-04-25T22:21:45.933Z,1.10
2019-04-25T22:24:15.141Z,1.10
2019-04-25T22:26:41.633Z,1.20
2019-04-25T22:29:08.785Z,0.90
2019-04-25T22:31:37.567Z,1.00
2019-04-25T22:34:08.861Z,1.17
2019-04-25T22:36:36.051Z,1.00
2019-04-25T22:39:13.059Z,1.10
2019-04-25T22:41:45.981Z,1.05
2019-04-25T22:44:14.015Z,1.20
2019-04-25T22:46:42.153Z,1.30
2019-04-25T22:49:09.641Z,1.10
2019-04-25T22:51:36.726Z,1.10
2019-04-25T22:54:05.358Z,0.80
2019-04-25T22:56:32.332Z,1.00
2019-04-25T22:58:59.278Z,1.30
2019-04-25T23:01:35.160Z,1.30
2019-04-25T23:04:03.930Z,1.10
2019-04-25T23:06:31.291Z,1.17
2019-04-25T23:08:58.232Z,1.20
2019-04-25T23:11:25.199Z,0.90
2019-04-25T23:13:52.366Z,1.40
2019-04-25T23:16:19.545Z,1.20
2019-04-25T23:18:46.452Z,1.10
2019-04-25T23:21:14.361Z,1.05
2019-04-25T23:23:41.420Z,1.10
2019-04-25T23:26:13.138Z,1.20
2019-04-25T23:28:45.584Z,1.00
2019-04-25T23:31:14.692Z,1.00
2019-04-25T23:33:41.521Z,1.00
2019-04-25T23:36:09.087Z,0.90
2019-04-25T23:38:36.092Z,0.85
2019-04-25T23:41:03.217Z,1.00
2019-04-25T23:43:30.121Z,1.00
2019-04-25T23:45:56.900Z,1.00
2019-04-25T23:48:24.043Z,1.10
2019-04-25T23:50:53.523Z,1.17
2019-04-25T23:53:19.460Z,0.98
2019-04-25T23:55:46.296Z,1.30
2019-04-25T23:58:13.473Z,1.30
